Davis Sea — WDC2883 — position and weather

sailwx.info

Track history (hours):
 
Tides and Currents Weather Stations Pressure Air Temp Water Temp Dewpoint Dewpoint Depression Visibility Wind Speed Wind Dir Waves Ship Positions

Davis Sea

Owner: Kirby Offshore Marine, LLC, Staten Island, NY. More information available from US FCC via Universal Licensing System and Coast Guard Vessel Documentation Center.

Last reported at 2015-Aug-01 09:33 UTC. Time now 2015-Aug-01 09:45 UTC.
Position N 29°46' W 095°06'.

; draft 2.6 m.

MMSI: 367129540.

Date/timePositionNaut miles runAvg speedWind from/ knotsBaromVisibWave heightAir tempDewpointWater temp
2015-Aug-01 09:33N 29°46' W 095°06'0 0.0
2015-Aug-01 08:29N 29°46' W 095°06'0 0.0
2015-Aug-01 07:31N 29°46' W 095°06'0 0.0
2015-Aug-01 06:33N 29°46' W 095°06'0 0.0
2015-Aug-01 05:26N 29°46' W 095°06'0 0.0
2015-Aug-01 03:23N 29°46' W 095°06'0 0.0
2015-Aug-01 02:26N 29°46' W 095°06'0 0.0
2015-Aug-01 01:30N 29°46' W 095°06'0 0.0
2015-Aug-01 00:33N 29°46' W 095°06'0 0.0
2015-Jul-31 23:33N 29°46' W 095°06'0 0.0
2015-Jul-31 22:33N 29°46' W 095°06'0 0.0
2015-Jul-31 21:33N 29°46' W 095°06'0 0.0
2015-Jul-31 20:33N 29°46' W 095°06'0 0.0
2015-Jul-31 19:33N 29°46' W 095°06'0 0.0
2015-Jul-31 18:33N 29°46' W 095°06'0 0.0
2015-Jul-31 17:33N 29°46' W 095°06'0 0.0
2015-Jul-31 16:33N 29°46' W 095°06'2 1.8
2015-Jul-31 15:30N 29°47' W 095°04'0 0.1
2015-Jul-31 14:33N 29°47' W 095°04'2 1.8
2015-Jul-31 13:32N 29°46' W 095°06'0 0.0
2015-Jul-31 12:30N 29°46' W 095°06'0 0.0
2015-Jul-31 11:27N 29°46' W 095°06'0 0.0
2015-Jul-31 09:13N 29°46' W 095°06'0 0.0
2015-Jul-31 01:24N 29°46' W 095°06'0 0.0
2015-Jul-30 20:30N 29°46' W 095°06'0 0.0
2015-Jul-30 11:32N 29°46' W 095°06'0 0.0
2015-Jul-30 10:32N 29°46' W 095°06'0 0.0
2015-Jul-30 09:27N 29°46' W 095°06'0 0.0
2015-Jul-30 08:18N 29°46' W 095°06'0 0.0
2015-Jul-30 07:32N 29°46' W 095°06'0 0.0
2015-Jul-30 06:32N 29°46' W 095°06'0 0.0
2015-Jul-29 21:32N 29°46' W 095°06'0 0.0
2015-Jul-29 20:33N 29°46' W 095°06'0 0.0
2015-Jul-29 19:33N 29°46' W 095°06'0 0.0
2015-Jul-29 18:33N 29°46' W 095°06'0 0.0
2015-Jul-29 17:33N 29°46' W 095°06'1 0.6
2015-Jul-29 16:29N 29°46' W 095°06'1 1.4
2015-Jul-29 15:33N 29°46' W 095°05'1 0.6
2015-Jul-29 14:10N 29°47' W 095°05'0 0.0
2015-Jul-29 13:33N 29°47' W 095°05'0 0.0
2015-Jul-29 12:33N 29°47' W 095°05'1 0.8
2015-Jul-29 11:15N 29°46' W 095°05'0 0.0
2015-Jul-28 15:07N 29°46' W 095°05'2 3.2
2015-Jul-28 14:33N 29°47' W 095°04'2 0.2
2015-Jul-28 03:10N 29°46' W 095°06'1 1.3
2015-Jul-28 02:33N 29°46' W 095°05'0 0.2
2015-Jul-28 01:30N 29°46' W 095°05'1 0.3
2015-Jul-27 22:24N 29°46' W 095°06'0 0.0
2015-Jul-27 10:20N 29°46' W 095°06'0 0.0
2015-Jul-27 09:27N 29°46' W 095°06'1 1.3
2015-Jul-27 08:33N 29°47' W 095°05'0 0.0
2015-Jul-27 07:33N 29°47' W 095°05'2 2.1
2015-Jul-27 06:30N 29°45' W 095°06'7 1.6
2015-Jul-27 02:11N 29°43' W 095°14'5 8.1
2015-Jul-27 01:32N 29°44' W 095°08'4 0.4
2015-Jul-26 13:22N 29°47' W 095°04'0 0.0
2015-Jul-26 12:30N 29°47' W 095°04'0 0.0
2015-Jul-26 11:20N 29°47' W 095°04'0 0.0
2015-Jul-26 09:22N 29°47' W 095°04'0 0.2
2015-Jul-26 08:33N 29°47' W 095°04'3 0.1
2015-Jul-24 23:28N 29°45' W 095°06'3 3.0
2015-Jul-24 22:33N 29°47' W 095°04'3 2.6
2015-Jul-24 21:30N 29°45' W 095°06'7 6.0
2015-Jul-24 20:24N 29°44' W 095°14'2 0.1
2015-Jul-23 20:16N 29°45' W 095°11'5 7.1
2015-Jul-23 19:33N 29°46' W 095°05'2 1.6
2015-Jul-23 18:32N 29°47' W 095°04'5 5.1
2015-Jul-23 17:32N 29°44' W 095°10'4 0.2
2015-Jul-22 19:28N 29°43' W 095°14'3 3.1
2015-Jul-22 18:32N 29°45' W 095°11'6 6.4
2015-Jul-22 17:33N 29°47' W 095°05'1 0.9
2015-Jul-22 16:04N 29°46' W 095°06'0 0.0
2015-Jul-22 14:29N 29°46' W 095°06'0 0.0
2015-Jul-22 13:25N 29°46' W 095°06'0 0.0
2015-Jul-22 12:30N 29°46' W 095°06'  
Track history (hours):
 
Tides and Currents Weather Stations Pressure Air Temp Water Temp Dewpoint Dewpoint Depression Visibility Wind Speed Wind Dir Waves Ship Positions

Davis Sea

Owner: Kirby Offshore Marine, LLC, Staten Island, NY. More information available from US FCC via Universal Licensing System and Coast Guard Vessel Documentation Center.

Last reported at 2015-Aug-01 09:33 UTC. Time now 2015-Aug-01 09:45 UTC.
Position N 29°46' W 095°06'.

; draft 2.6 m.

MMSI: 367129540.

Date/timePositionNaut miles runAvg speedWind from/ knotsBaromVisibWave heightAir tempDewpointWater temp
2015-Aug-01 09:33N 29°46' W 095°06'0 0.0
2015-Aug-01 08:29N 29°46' W 095°06'0 0.0
2015-Aug-01 07:31N 29°46' W 095°06'0 0.0
2015-Aug-01 06:33N 29°46' W 095°06'0 0.0
2015-Aug-01 05:26N 29°46' W 095°06'0 0.0
2015-Aug-01 03:23N 29°46' W 095°06'0 0.0
2015-Aug-01 02:26N 29°46' W 095°06'0 0.0
2015-Aug-01 01:30N 29°46' W 095°06'0 0.0
2015-Aug-01 00:33N 29°46' W 095°06'0 0.0
2015-Jul-31 23:33N 29°46' W 095°06'0 0.0
2015-Jul-31 22:33N 29°46' W 095°06'0 0.0
2015-Jul-31 21:33N 29°46' W 095°06'0 0.0
2015-Jul-31 20:33N 29°46' W 095°06'0 0.0
2015-Jul-31 19:33N 29°46' W 095°06'0 0.0
2015-Jul-31 18:33N 29°46' W 095°06'0 0.0
2015-Jul-31 17:33N 29°46' W 095°06'0 0.0
2015-Jul-31 16:33N 29°46' W 095°06'2 1.8
2015-Jul-31 15:30N 29°47' W 095°04'0 0.1
2015-Jul-31 14:33N 29°47' W 095°04'2 1.8
2015-Jul-31 13:32N 29°46' W 095°06'0 0.0
2015-Jul-31 12:30N 29°46' W 095°06'0 0.0
2015-Jul-31 11:27N 29°46' W 095°06'0 0.0
2015-Jul-31 09:13N 29°46' W 095°06'0 0.0
2015-Jul-31 01:24N 29°46' W 095°06'0 0.0
2015-Jul-30 20:30N 29°46' W 095°06'0 0.0
2015-Jul-30 11:32N 29°46' W 095°06'0 0.0
2015-Jul-30 10:32N 29°46' W 095°06'0 0.0
2015-Jul-30 09:27N 29°46' W 095°06'0 0.0
2015-Jul-30 08:18N 29°46' W 095°06'0 0.0
2015-Jul-30 07:32N 29°46' W 095°06'0 0.0
2015-Jul-30 06:32N 29°46' W 095°06'0 0.0
2015-Jul-29 21:32N 29°46' W 095°06'0 0.0
2015-Jul-29 20:33N 29°46' W 095°06'0 0.0
2015-Jul-29 19:33N 29°46' W 095°06'0 0.0
2015-Jul-29 18:33N 29°46' W 095°06'0 0.0
2015-Jul-29 17:33N 29°46' W 095°06'1 0.6
2015-Jul-29 16:29N 29°46' W 095°06'1 1.4
2015-Jul-29 15:33N 29°46' W 095°05'1 0.6
2015-Jul-29 14:10N 29°47' W 095°05'0 0.0
2015-Jul-29 13:33N 29°47' W 095°05'0 0.0
2015-Jul-29 12:33N 29°47' W 095°05'1 0.8
2015-Jul-29 11:15N 29°46' W 095°05'0 0.0
2015-Jul-28 15:07N 29°46' W 095°05'2 3.2
2015-Jul-28 14:33N 29°47' W 095°04'2 0.2
2015-Jul-28 03:10N 29°46' W 095°06'1 1.3
2015-Jul-28 02:33N 29°46' W 095°05'0 0.2
2015-Jul-28 01:30N 29°46' W 095°05'1 0.3
2015-Jul-27 22:24N 29°46' W 095°06'0 0.0
2015-Jul-27 10:20N 29°46' W 095°06'0 0.0
2015-Jul-27 09:27N 29°46' W 095°06'1 1.3
2015-Jul-27 08:33N 29°47' W 095°05'0 0.0
2015-Jul-27 07:33N 29°47' W 095°05'2 2.1
2015-Jul-27 06:30N 29°45' W 095°06'7 1.6
2015-Jul-27 02:11N 29°43' W 095°14'5 8.1
2015-Jul-27 01:32N 29°44' W 095°08'4 0.4
2015-Jul-26 13:22N 29°47' W 095°04'0 0.0
2015-Jul-26 12:30N 29°47' W 095°04'0 0.0
2015-Jul-26 11:20N 29°47' W 095°04'0 0.0
2015-Jul-26 09:22N 29°47' W 095°04'0 0.2
2015-Jul-26 08:33N 29°47' W 095°04'3 0.1
2015-Jul-24 23:28N 29°45' W 095°06'3 3.0
2015-Jul-24 22:33N 29°47' W 095°04'3 2.6
2015-Jul-24 21:30N 29°45' W 095°06'7 6.0
2015-Jul-24 20:24N 29°44' W 095°14'2 0.1
2015-Jul-23 20:16N 29°45' W 095°11'5 7.1
2015-Jul-23 19:33N 29°46' W 095°05'2 1.6
2015-Jul-23 18:32N 29°47' W 095°04'5 5.1
2015-Jul-23 17:32N 29°44' W 095°10'4 0.2
2015-Jul-22 19:28N 29°43' W 095°14'3 3.1
2015-Jul-22 18:32N 29°45' W 095°11'6 6.4
2015-Jul-22 17:33N 29°47' W 095°05'1 0.9
2015-Jul-22 16:04N 29°46' W 095°06'0 0.0
2015-Jul-22 14:29N 29°46' W 095°06'0 0.0
2015-Jul-22 13:25N 29°46' W 095°06'0 0.0
2015-Jul-22 12:30N 29°46' W 095°06'  

Dump ship's entire track history